createdAt,value
2018-08-22T00:01:32.914Z,16.00
2018-08-22T00:04:01.101Z,15.80
2018-08-22T00:06:29.289Z,16.63
2018-08-22T00:08:57.554Z,16.30
2018-08-22T00:11:25.725Z,17.83
2018-08-22T00:13:53.915Z,16.60
2018-08-22T00:16:22.165Z,14.03
2018-08-22T00:18:50.434Z,15.37
2018-08-22T00:21:18.857Z,13.83
2018-08-22T00:23:47.327Z,14.60
2018-08-22T00:26:15.535Z,14.90
2018-08-22T00:28:43.773Z,15.83
2018-08-22T00:31:11.981Z,15.40
2018-08-22T00:33:40.210Z,15.83
2018-08-22T00:36:08.396Z,15.20
2018-08-22T00:38:36.605Z,15.93
2018-08-22T00:41:04.809Z,16.30
2018-08-22T00:43:33.046Z,15.10
2018-08-22T00:46:01.505Z,15.07
2018-08-22T00:48:29.738Z,15.63
2018-08-22T00:50:57.921Z,14.30
2018-08-22T00:53:26.114Z,15.50
2018-08-22T00:55:54.321Z,15.10
2018-08-22T00:58:22.517Z,16.27
2018-08-22T01:00:50.729Z,17.23
2018-08-22T01:03:18.946Z,17.03
2018-08-22T01:05:47.169Z,15.60
2018-08-22T01:08:15.388Z,13.97
2018-08-22T01:10:43.601Z,14.63
2018-08-22T01:13:11.793Z,15.40
2018-08-22T01:15:40.001Z,16.27
2018-08-22T01:18:08.300Z,15.47
2018-08-22T01:20:36.693Z,15.10
2018-08-22T01:23:04.946Z,15.60
2018-08-22T01:25:33.149Z,16.90
2018-08-22T01:28:01.733Z,17.10
2018-08-22T01:30:29.935Z,15.67
2018-08-22T01:32:58.134Z,14.73
2018-08-22T01:35:26.505Z,17.40
2018-08-22T01:37:54.728Z,15.30
2018-08-22T01:40:22.955Z,16.57
2018-08-22T01:42:51.146Z,15.43
2018-08-22T01:45:19.508Z,15.10
2018-08-22T01:47:47.690Z,15.30
2018-08-22T01:50:16.044Z,15.47
2018-08-22T01:52:44.244Z,15.23
2018-08-22T01:55:12.433Z,15.30
2018-08-22T01:57:40.642Z,15.70
2018-08-22T02:00:09.130Z,15.53
2018-08-22T02:02:37.376Z,15.73
2018-08-22T02:05:05.625Z,14.50
2018-08-22T02:07:34.470Z,14.93
2018-08-22T02:10:02.684Z,14.73
2018-08-22T02:12:31.067Z,16.27
2018-08-22T02:14:59.260Z,15.53
2018-08-22T02:17:27.458Z,13.97
2018-08-22T02:19:55.669Z,14.73
2018-08-22T02:22:23.878Z,17.10
2018-08-22T02:24:52.085Z,15.70
2018-08-22T02:27:20.273Z,15.70
2018-08-22T02:29:48.473Z,15.60
2018-08-22T02:32:16.658Z,16.53
2018-08-22T02:34:44.946Z,15.80
2018-08-22T02:37:13.147Z,16.43
2018-08-22T02:39:41.362Z,15.17
2018-08-22T02:42:09.562Z,15.30
2018-08-22T02:44:37.757Z,15.17
2018-08-22T02:47:05.967Z,15.27
2018-08-22T02:49:34.189Z,14.37
2018-08-22T02:52:02.418Z,15.40
2018-08-22T02:54:30.610Z,15.67
2018-08-22T02:56:58.842Z,14.83
2018-08-22T02:59:27.493Z,14.37
2018-08-22T03:01:55.874Z,15.00
2018-08-22T03:04:24.294Z,14.97
2018-08-22T03:06:52.506Z,14.93
2018-08-22T03:09:20.705Z,16.40
2018-08-22T03:11:48.903Z,14.93
2018-08-22T03:14:17.093Z,14.20
2018-08-22T03:16:45.309Z,15.23
2018-08-22T03:19:13.620Z,14.80
2018-08-22T03:21:41.794Z,15.70
2018-08-22T03:24:09.999Z,15.90
2018-08-22T03:26:38.190Z,15.60
2018-08-22T03:29:06.501Z,15.87
2018-08-22T03:31:34.665Z,16.43
2018-08-22T03:34:02.853Z,15.97
2018-08-22T03:36:31.071Z,17.07
2018-08-22T03:38:59.290Z,16.73
2018-08-22T03:41:27.776Z,16.70
2018-08-22T03:43:55.965Z,15.93
2018-08-22T03:46:24.161Z,17.40
2018-08-22T03:48:52.357Z,17.63
2018-08-22T03:51:20.557Z,15.80
2018-08-22T03:53:48.756Z,16.07
2018-08-22T03:56:16.949Z,14.83
2018-08-22T03:58:45.129Z,14.20
2018-08-22T04:01:13.335Z,15.97
2018-08-22T04:03:41.657Z,15.40
2018-08-22T04:06:09.917Z,16.97
2018-08-22T04:08:38.115Z,15.33
2018-08-22T04:11:06.312Z,15.20
2018-08-22T04:13:34.498Z,15.90
2018-08-22T04:16:02.691Z,16.83
2018-08-22T04:18:30.902Z,16.10
2018-08-22T04:20:59.101Z,14.87
2018-08-22T04:23:27.281Z,16.10
2018-08-22T04:25:55.537Z,15.20
2018-08-22T04:28:23.723Z,15.13
2018-08-22T04:30:51.948Z,15.27
2018-08-22T04:33:20.098Z,14.77
2018-08-22T04:35:48.332Z,15.90
2018-08-22T04:38:16.513Z,15.90
2018-08-22T04:40:44.730Z,16.60
2018-08-22T04:43:13.590Z,16.63
2018-08-22T04:45:41.774Z,17.30
2018-08-22T04:48:10.339Z,17.03
2018-08-22T04:50:38.497Z,16.93
2018-08-22T04:53:06.701Z,15.60
2018-08-22T04:55:34.910Z,16.77
2018-08-22T04:58:03.128Z,15.73
2018-08-22T05:00:31.323Z,16.43
2018-08-22T05:02:59.517Z,15.97
2018-08-22T05:05:27.701Z,16.33
2018-08-22T05:07:55.925Z,16.17
2018-08-22T05:10:24.213Z,16.47
2018-08-22T05:12:52.426Z,16.20
2018-08-22T05:15:20.626Z,17.73
2018-08-22T05:17:48.833Z,17.07
2018-08-22T05:20:17.044Z,16.50
2018-08-22T05:22:45.210Z,15.87
2018-08-22T05:25:13.629Z,18.70
2018-08-22T05:27:42.125Z,17.50
2018-08-22T05:30:10.348Z,15.40
2018-08-22T05:32:38.710Z,16.50
2018-08-22T05:35:06.918Z,15.10
2018-08-22T05:37:35.131Z,16.37
2018-08-22T05:40:03.355Z,15.10
2018-08-22T05:42:31.545Z,15.27
2018-08-22T05:44:59.837Z,15.50
2018-08-22T05:47:28.042Z,14.70
2018-08-22T05:49:56.334Z,22.23
2018-08-22T05:52:24.517Z,15.70
2018-08-22T05:54:54.109Z,15.07
2018-08-22T05:57:22.353Z,14.60
2018-08-22T05:59:50.747Z,23.80
2018-08-22T06:02:18.970Z,18.07
2018-08-22T06:04:47.199Z,16.67
2018-08-22T06:07:15.423Z,17.03
2018-08-22T06:09:43.634Z,14.77
2018-08-22T06:12:11.859Z,15.87
2018-08-22T06:14:40.097Z,15.97
2018-08-22T06:17:08.630Z,14.40
2018-08-22T06:19:36.845Z,17.60
2018-08-22T06:22:05.032Z,16.77
2018-08-22T06:24:33.253Z,15.67
2018-08-22T06:27:01.494Z,15.90
2018-08-22T06:29:29.718Z,15.23
2018-08-22T06:31:57.950Z,15.37
2018-08-22T06:34:26.157Z,16.53
2018-08-22T06:36:54.430Z,15.77
2018-08-22T06:39:22.777Z,15.30
2018-08-22T06:41:50.981Z,15.77
2018-08-22T06:44:19.249Z,16.07
2018-08-22T06:46:47.425Z,14.47
2018-08-22T06:49:15.682Z,15.43
2018-08-22T06:51:43.889Z,13.83
2018-08-22T06:54:12.138Z,14.67
2018-08-22T06:56:40.406Z,14.73
2018-08-22T06:59:08.642Z,14.67
2018-08-22T07:01:36.975Z,13.70
2018-08-22T07:04:05.267Z,15.40
2018-08-22T07:06:33.506Z,13.70
2018-08-22T07:09:01.771Z,14.37
2018-08-22T07:11:29.956Z,14.40
2018-08-22T07:13:58.208Z,12.67
2018-08-22T07:16:26.463Z,14.10
2018-08-22T07:18:54.698Z,14.20
2018-08-22T07:21:22.928Z,16.10
2018-08-22T07:23:51.132Z,13.57
2018-08-22T07:26:19.438Z,13.93
2018-08-22T07:28:47.721Z,14.60
2018-08-22T07:31:16.359Z,13.37
2018-08-22T07:33:45.045Z,14.63
2018-08-22T07:36:13.268Z,15.73
2018-08-22T07:38:41.599Z,14.57
2018-08-22T07:41:09.855Z,12.50
2018-08-22T07:43:38.236Z,14.73
2018-08-22T07:46:06.805Z,14.40
2018-08-22T07:48:35.095Z,13.83
2018-08-22T07:51:03.379Z,14.37
2018-08-22T07:53:31.639Z,13.20
2018-08-22T07:56:00.005Z,13.87
2018-08-22T07:58:28.320Z,13.23
2018-08-22T08:00:57.576Z,13.13
2018-08-22T08:03:25.849Z,14.87
2018-08-22T08:05:54.134Z,14.70
2018-08-22T08:08:22.522Z,13.37
2018-08-22T08:10:51.062Z,13.03
2018-08-22T08:13:24.761Z,12.00
2018-08-22T08:15:53.319Z,15.57
2018-08-22T08:18:21.608Z,13.50
2018-08-22T08:20:50.076Z,11.60
2018-08-22T08:23:21.143Z,15.40
2018-08-22T08:25:50.470Z,11.60
2018-08-22T08:28:18.810Z,10.93
2018-08-22T08:30:47.411Z,12.43
2018-08-22T08:33:15.713Z,12.50
2018-08-22T08:35:44.051Z,11.40
2018-08-22T08:38:13.588Z,19.60
2018-08-22T08:40:43.430Z,11.70
2018-08-22T08:43:11.970Z,12.97
2018-08-22T08:45:40.814Z,12.27
2018-08-22T08:48:09.685Z,11.40
2018-08-22T08:50:39.257Z,12.33
2018-08-22T08:53:07.810Z,11.27
2018-08-22T08:55:36.510Z,12.50
2018-08-22T08:58:05.177Z,10.27
2018-08-22T09:00:33.521Z,12.20
2018-08-22T09:03:01.932Z,10.90
2018-08-22T09:05:30.286Z,11.73
2018-08-22T09:07:58.614Z,11.70
2018-08-22T09:10:26.921Z,12.80
2018-08-22T09:12:55.633Z,11.50
2018-08-22T09:15:25.515Z,12.77
2018-08-22T09:17:54.129Z,10.77
2018-08-22T09:20:22.616Z,10.97
2018-08-22T09:22:51.158Z,11.10
2018-08-22T09:25:19.600Z,10.00
2018-08-22T09:27:48.161Z,11.23
2018-08-22T09:30:17.274Z,11.03
2018-08-22T09:32:46.314Z,10.93
2018-08-22T09:35:14.797Z,14.27
2018-08-22T09:37:43.353Z,11.07
2018-08-22T09:40:13.216Z,11.33
2018-08-22T09:42:41.847Z,10.13
2018-08-22T09:45:10.921Z,9.70
2018-08-22T09:47:39.915Z,10.50
2018-08-22T09:50:08.278Z,10.57
2018-08-22T09:52:36.939Z,10.80
2018-08-22T09:55:06.486Z,10.13
2018-08-22T09:57:36.476Z,10.13
2018-08-22T10:00:06.631Z,11.27
2018-08-22T10:02:35.233Z,9.20
2018-08-22T10:05:03.889Z,10.10
2018-08-22T10:07:33.248Z,10.13
2018-08-22T10:10:01.710Z,10.83
2018-08-22T10:12:30.061Z,9.27
2018-08-22T10:14:58.388Z,10.10
2018-08-22T10:17:26.738Z,9.70
2018-08-22T10:19:55.714Z,10.10
2018-08-22T10:22:24.348Z,9.70
2018-08-22T10:24:52.759Z,9.80
2018-08-22T10:27:21.511Z,9.70
2018-08-22T10:29:50.849Z,10.47
2018-08-22T10:32:19.815Z,9.67
2018-08-22T10:34:48.770Z,10.00
2018-08-22T10:37:17.068Z,9.90
2018-08-22T10:39:45.857Z,10.63
2018-08-22T10:42:16.318Z,9.70
2018-08-22T10:44:44.738Z,10.80
2018-08-22T10:47:13.085Z,9.80
2018-08-22T10:49:41.421Z,9.60
2018-08-22T10:52:10.771Z,9.50
2018-08-22T10:54:40.061Z,9.43
2018-08-22T10:57:08.337Z,8.70
2018-08-22T10:59:37.124Z,9.57
2018-08-22T11:02:05.758Z,9.80
2018-08-22T11:04:34.326Z,9.27
2018-08-22T11:07:02.650Z,10.93
2018-08-22T11:09:31.866Z,9.37
2018-08-22T11:12:00.217Z,8.80
2018-08-22T11:14:28.577Z,9.90
2018-08-22T11:16:56.899Z,8.37
2018-08-22T11:19:25.261Z,8.80
2018-08-22T11:22:05.614Z,8.40
2018-08-22T11:24:45.217Z,8.80
2018-08-22T11:27:24.875Z,8.90
2018-08-22T11:30:04.673Z,8.33
2018-08-22T11:32:44.870Z,9.10
2018-08-22T11:35:12.095Z,7.83
2018-08-22T11:37:40.462Z,8.13
2018-08-22T11:40:10.166Z,8.60
2018-08-22T11:42:38.545Z,8.20
2018-08-22T11:45:07.179Z,8.50
2018-08-22T11:47:35.712Z,8.10
2018-08-22T11:50:04.017Z,8.50
2018-08-22T11:52:32.402Z,8.67
2018-08-22T11:55:01.035Z,8.60
2018-08-22T11:57:30.381Z,7.83
2018-08-22T11:59:58.736Z,7.60
2018-08-22T12:02:28.033Z,7.73
2018-08-22T12:04:57.626Z,8.03
2018-08-22T12:07:26.886Z,7.70
2018-08-22T12:09:55.237Z,7.97
2018-08-22T12:12:24.538Z,7.60
2018-08-22T12:14:53.014Z,7.87
2018-08-22T12:17:21.681Z,8.27
2018-08-22T12:19:50.135Z,8.10
2018-08-22T12:22:18.966Z,7.70
2018-08-22T12:24:48.762Z,7.93
2018-08-22T12:27:17.959Z,8.07
2018-08-22T12:29:46.283Z,8.07
2018-08-22T12:32:14.822Z,7.53
2018-08-22T12:34:43.141Z,8.87
2018-08-22T12:37:11.475Z,7.43
2018-08-22T12:39:40.090Z,7.90
2018-08-22T12:42:08.762Z,7.80
2018-08-22T12:44:37.197Z,7.37
2018-08-22T12:47:05.825Z,8.23
2018-08-22T12:49:34.205Z,8.10
2018-08-22T12:52:02.948Z,6.87
2018-08-22T12:54:32.414Z,7.37
2018-08-22T12:57:00.788Z,7.47
2018-08-22T12:59:30.060Z,7.77
2018-08-22T13:01:58.685Z,7.17
2018-08-22T13:04:27.332Z,6.87
2018-08-22T13:06:56.083Z,7.00
2018-08-22T13:09:25.557Z,7.20
2018-08-22T13:11:55.329Z,7.40
2018-08-22T13:14:23.882Z,7.50
2018-08-22T13:16:55.856Z,7.47
2018-08-22T13:19:24.905Z,8.60
2018-08-22T13:21:54.267Z,7.50
2018-08-22T13:24:23.436Z,7.13
2018-08-22T13:26:52.033Z,7.00
2018-08-22T13:29:20.531Z,7.03
2018-08-22T13:31:48.867Z,7.33
2018-08-22T13:34:17.490Z,7.27
2018-08-22T13:36:45.795Z,7.67
2018-08-22T13:39:14.150Z,7.40
2018-08-22T13:41:42.736Z,6.90
2018-08-22T13:44:11.118Z,7.67
2018-08-22T13:46:41.045Z,8.03
2018-08-22T13:49:09.438Z,6.90
2018-08-22T13:51:37.967Z,6.87
2018-08-22T13:54:06.322Z,9.17
2018-08-22T13:56:34.708Z,7.93
2018-08-22T13:59:03.086Z,7.97
2018-08-22T14:01:31.489Z,6.47
2018-08-22T14:04:00.527Z,6.80
2018-08-22T14:06:28.989Z,7.23
2018-08-22T14:08:57.864Z,7.37
2018-08-22T14:11:26.350Z,8.50
2018-08-22T14:13:54.698Z,8.00
2018-08-22T14:16:23.093Z,8.70
2018-08-22T14:18:52.388Z,7.37
2018-08-22T14:21:20.728Z,7.80
2018-08-22T14:23:49.156Z,7.20
2018-08-22T14:26:17.479Z,7.73
2018-08-22T14:28:45.880Z,7.60
2018-08-22T14:31:14.219Z,7.50
2018-08-22T14:33:42.759Z,7.70
2018-08-22T14:36:11.194Z,6.47
2018-08-22T14:38:39.634Z,7.30
2018-08-22T14:41:09.280Z,7.00
2018-08-22T14:43:38.444Z,7.00
2018-08-22T14:46:06.790Z,7.40
2018-08-22T14:48:35.310Z,6.63
2018-08-22T14:51:03.685Z,6.53
2018-08-22T14:53:32.023Z,6.50
2018-08-22T14:56:00.462Z,6.80
2018-08-22T14:58:29.158Z,7.13
2018-08-22T15:00:57.507Z,7.00
2018-08-22T15:03:26.600Z,7.57
2018-08-22T15:05:54.870Z,7.00
2018-08-22T15:08:23.242Z,6.13
2018-08-22T15:10:51.531Z,7.57
2018-08-22T15:13:20.105Z,7.20
2018-08-22T15:15:48.482Z,6.77
2018-08-22T15:18:16.994Z,7.70
2018-08-22T15:20:45.419Z,8.90
2018-08-22T15:23:13.774Z,6.97
2018-08-22T15:25:42.153Z,6.90
2018-08-22T15:28:10.678Z,7.20
2018-08-22T15:30:38.973Z,6.60
2018-08-22T15:33:07.342Z,6.63
2018-08-22T15:35:35.679Z,6.60
2018-08-22T15:38:04.089Z,7.10
2018-08-22T15:40:32.468Z,7.00
2018-08-22T15:43:00.801Z,6.90
2018-08-22T15:45:29.175Z,6.30
2018-08-22T15:47:57.513Z,7.33
2018-08-22T15:50:25.796Z,7.50
2018-08-22T15:52:54.190Z,6.00
2018-08-22T15:55:22.539Z,6.13
2018-08-22T15:57:58.347Z,6.43
2018-08-22T16:00:34.725Z,6.53
2018-08-22T16:03:04.317Z,6.20
2018-08-22T16:05:33.317Z,6.80
2018-08-22T16:08:01.659Z,7.37
2018-08-22T16:10:30.388Z,6.97
2018-08-22T16:12:58.611Z,6.80
2018-08-22T16:15:27.544Z,6.20
2018-08-22T16:17:56.855Z,7.63
2018-08-22T16:20:26.189Z,7.30
2018-08-22T16:22:54.620Z,8.17
2018-08-22T16:26:01.296Z,8.17
2018-08-22T16:28:40.390Z,8.70
2018-08-22T16:31:08.654Z,8.03
2018-08-22T16:33:36.814Z,7.50
2018-08-22T16:36:05.039Z,8.43
2018-08-22T16:38:33.274Z,8.40
2018-08-22T16:41:01.477Z,7.87
2018-08-22T16:43:43.606Z,8.70
2018-08-22T16:46:13.646Z,7.90
2018-08-22T16:48:43.315Z,8.17
2018-08-22T16:51:11.525Z,9.00
2018-08-22T16:53:39.760Z,8.43
2018-08-22T16:56:07.996Z,9.13
2018-08-22T16:58:36.330Z,7.77
2018-08-22T17:01:04.582Z,8.40
2018-08-22T17:03:32.769Z,8.77
2018-08-22T17:06:06.470Z,7.70
2018-08-22T17:08:34.702Z,8.00
2018-08-22T17:11:04.384Z,8.40
2018-08-22T17:13:42.168Z,8.87
2018-08-22T17:16:10.390Z,8.67
2018-08-22T17:18:38.626Z,7.17
2018-08-22T17:21:07.095Z,6.90
2018-08-22T17:23:35.345Z,8.30
2018-08-22T17:26:03.617Z,8.47
2018-08-22T17:28:38.278Z,9.20
2018-08-22T17:31:06.853Z,8.30
2018-08-22T17:33:42.366Z,8.40
2018-08-22T17:36:11.731Z,8.20
2018-08-22T17:38:43.566Z,7.80
2018-08-22T17:41:11.769Z,7.97
2018-08-22T17:43:55.062Z,7.80
2018-08-22T17:46:25.062Z,8.90
2018-08-22T17:48:53.292Z,8.67
2018-08-22T17:51:21.656Z,9.30
2018-08-22T17:53:49.922Z,8.50
2018-08-22T17:56:19.997Z,8.63
2018-08-22T17:58:48.514Z,8.97
2018-08-22T18:01:16.737Z,9.23
2018-08-22T18:03:44.941Z,9.37
2018-08-22T18:06:13.173Z,9.30
2018-08-22T18:08:41.378Z,9.13
2018-08-22T18:11:09.614Z,9.67
2018-08-22T18:13:38.012Z,8.83
2018-08-22T18:16:06.242Z,13.97
2018-08-22T18:18:34.463Z,10.13
2018-08-22T18:21:02.694Z,9.30
2018-08-22T18:23:31.001Z,9.93
2018-08-22T18:26:00.489Z,10.20
2018-08-22T18:28:29.250Z,8.60
2018-08-22T18:30:57.538Z,10.00
2018-08-22T18:33:25.869Z,10.27
2018-08-22T18:35:54.082Z,11.00
2018-08-22T18:38:22.269Z,9.90
2018-08-22T18:41:01.726Z,10.87
2018-08-22T18:43:30.124Z,10.33
2018-08-22T18:46:00.510Z,10.17
2018-08-22T18:48:30.616Z,10.63
2018-08-22T18:50:58.894Z,10.27
2018-08-22T18:53:27.370Z,12.10
2018-08-22T18:56:07.258Z,12.30
2018-08-22T18:58:35.654Z,11.50
2018-08-22T19:01:04.446Z,11.23
2018-08-22T19:03:33.246Z,12.03
2018-08-22T19:06:01.689Z,13.23
2018-08-22T19:08:29.942Z,13.67
2018-08-22T19:10:58.297Z,15.93
2018-08-22T19:13:26.857Z,15.00
2018-08-22T19:16:00.701Z,15.63
2018-08-22T19:18:29.005Z,14.70
2018-08-22T19:20:59.334Z,14.63
2018-08-22T19:23:27.843Z,15.33
2018-08-22T19:25:56.686Z,14.50
2018-08-22T19:28:24.969Z,15.33
2018-08-22T19:30:53.310Z,14.50
2018-08-22T19:33:22.761Z,16.40
2018-08-22T19:35:51.207Z,16.60
2018-08-22T19:38:20.854Z,16.60
2018-08-22T19:40:49.085Z,16.60
2018-08-22T19:43:17.342Z,18.50
2018-08-22T19:45:45.614Z,17.97
2018-08-22T19:48:14.689Z,19.70
2018-08-22T19:50:42.970Z,20.23
2018-08-22T19:53:11.192Z,21.20
2018-08-22T19:55:39.554Z,20.10
2018-08-22T19:58:08.393Z,21.07
2018-08-22T20:00:36.679Z,20.00
2018-08-22T20:03:05.067Z,20.67
2018-08-22T20:05:49.738Z,18.73
2018-08-22T20:08:19.109Z,20.10
2018-08-22T20:10:47.357Z,17.23
2018-08-22T20:13:15.543Z,18.37
2018-08-22T20:15:43.793Z,16.47
2018-08-22T20:18:12.038Z,17.97
2018-08-22T20:27:25.301Z,15.67
2018-08-22T20:29:58.190Z,14.90
2018-08-22T20:32:30.149Z,15.50
2018-08-22T20:35:00.349Z,15.17
2018-08-22T20:38:58.025Z,16.63
2018-08-22T20:41:26.216Z,15.07
2018-08-22T20:43:54.430Z,15.27
2018-08-22T20:46:22.631Z,14.57
2018-08-22T20:48:51.655Z,16.40
2018-08-22T20:51:19.842Z,16.47
2018-08-22T20:53:53.195Z,14.90
2018-08-22T20:56:22.029Z,15.17
2018-08-22T20:58:50.474Z,15.83
2018-08-22T21:01:18.776Z,14.27
2018-08-22T21:03:47.673Z,14.53
2018-08-22T21:06:15.882Z,14.20
2018-08-22T21:08:44.128Z,13.93
2018-08-22T21:11:12.290Z,13.77
2018-08-22T21:13:40.515Z,13.70
2018-08-22T21:16:08.702Z,14.13
2018-08-22T21:18:37.130Z,13.47
2018-08-22T21:21:09.750Z,11.93
2018-08-22T21:23:38.403Z,13.17
2018-08-22T21:26:06.594Z,14.20
2018-08-22T21:28:39.181Z,14.03
2018-08-22T21:31:07.433Z,14.47
2018-08-22T21:33:35.625Z,13.40
2018-08-22T21:36:03.829Z,12.70
2018-08-22T21:38:32.068Z,12.67
2018-08-22T21:41:00.268Z,11.93
2018-08-22T21:43:28.466Z,13.40
2018-08-22T21:45:56.685Z,12.17
2018-08-22T21:48:26.105Z,12.60
2018-08-22T21:50:54.309Z,12.00
2018-08-22T21:53:22.715Z,12.63
2018-08-22T21:55:52.197Z,12.27
2018-08-22T21:58:20.413Z,12.03
2018-08-22T22:00:48.646Z,13.60
2018-08-22T22:03:22.231Z,12.80
2018-08-22T22:05:56.882Z,13.57
2018-08-22T22:08:25.121Z,14.13
2018-08-22T22:10:58.323Z,13.40
2018-08-22T22:13:26.563Z,14.00
2018-08-22T22:15:58.196Z,13.30
2018-08-22T22:18:26.470Z,13.13
2018-08-22T22:21:06.885Z,13.50
2018-08-22T22:23:40.893Z,12.80
2018-08-22T22:26:09.430Z,13.03
2018-08-22T22:28:37.614Z,12.07
2018-08-22T22:31:08.494Z,13.20
2018-08-22T22:33:36.769Z,13.00
2018-08-22T22:36:04.988Z,13.13
2018-08-22T22:38:33.191Z,13.10
2018-08-22T22:41:01.438Z,12.57
2018-08-22T22:43:29.663Z,11.60
2018-08-22T22:45:57.937Z,12.60
2018-08-22T22:48:36.046Z,11.93
2018-08-22T22:51:04.275Z,12.73
2018-08-22T22:53:32.526Z,12.27
2018-08-22T22:56:00.722Z,12.40
2018-08-22T22:58:28.948Z,13.57
2018-08-22T23:00:57.151Z,13.13
2018-08-22T23:03:25.358Z,11.53
2018-08-22T23:05:53.573Z,12.23
2018-08-22T23:08:21.810Z,14.60
2018-08-22T23:10:50.054Z,12.60
2018-08-22T23:13:18.312Z,12.60
2018-08-22T23:15:46.759Z,13.30
2018-08-22T23:18:15.021Z,12.60
2018-08-22T23:20:43.901Z,12.63
2018-08-22T23:23:25.524Z,11.50
2018-08-22T23:25:54.217Z,13.23
2018-08-22T23:28:22.457Z,12.80
2018-08-22T23:30:50.786Z,11.40
2018-08-22T23:33:18.995Z,17.97
2018-08-22T23:35:47.182Z,14.40
2018-08-22T23:38:20.852Z,11.97
2018-08-22T23:40:49.086Z,12.37
2018-08-22T23:43:17.303Z,13.40
2018-08-22T23:45:50.824Z,13.40
2018-08-22T23:48:24.435Z,14.07
2018-08-22T23:50:58.481Z,12.20
2018-08-22T23:53:29.647Z,11.77
2018-08-22T23:56:10.844Z,13.30
2018-08-22T23:58:39.893Z,12.10
